createdAt,value
2019-03-21T00:01:38.604Z,34.27
2019-03-21T00:04:11.292Z,30.37
2019-03-21T00:06:41.266Z,30.97
2019-03-21T00:09:13.600Z,31.67
2019-03-21T00:12:00.764Z,27.87
2019-03-21T00:15:20.099Z,29.33
2019-03-21T00:18:00.113Z,29.87
2019-03-21T00:20:30.041Z,29.93
2019-03-21T00:23:00.112Z,29.37
2019-03-21T00:25:30.178Z,31.30
2019-03-21T00:28:00.484Z,33.57
2019-03-21T00:30:30.494Z,29.83
2019-03-21T00:33:00.691Z,30.70
2019-03-21T00:35:30.624Z,27.33
2019-03-21T00:38:00.589Z,31.77
2019-03-21T00:40:33.450Z,32.33
2019-03-21T00:43:05.048Z,31.37
2019-03-21T00:45:35.063Z,33.10
2019-03-21T00:48:06.209Z,32.67
2019-03-21T00:50:36.289Z,31.17
2019-03-21T00:53:06.529Z,32.17
2019-03-21T00:55:37.157Z,30.70
2019-03-21T00:58:07.341Z,33.03
2019-03-21T01:00:40.946Z,28.67
2019-03-21T01:03:12.321Z,31.33
2019-03-21T01:05:42.595Z,34.77
2019-03-21T01:08:12.541Z,32.07
2019-03-21T01:10:42.659Z,34.60
2019-03-21T01:13:13.393Z,29.37
2019-03-21T01:15:43.705Z,31.83
2019-03-21T01:18:13.678Z,30.80
2019-03-21T01:20:45.895Z,34.80
2019-03-21T01:23:15.940Z,32.57
2019-03-21T01:25:48.901Z,29.80
2019-03-21T01:28:19.001Z,31.67
2019-03-21T01:30:49.512Z,30.60
2019-03-21T01:33:19.595Z,30.60
2019-03-21T01:35:49.729Z,30.37
2019-03-21T01:38:19.911Z,35.33
2019-03-21T01:40:50.671Z,30.87
2019-03-21T01:43:22.780Z,32.37
2019-03-21T01:45:52.880Z,32.57
2019-03-21T01:48:22.942Z,33.47
2019-03-21T01:50:52.970Z,32.63
2019-03-21T01:53:23.115Z,34.07
2019-03-21T01:55:53.304Z,31.33
2019-03-21T01:58:23.368Z,31.80
2019-03-21T02:00:53.615Z,31.10
2019-03-21T02:03:23.752Z,31.67
2019-03-21T02:05:53.725Z,33.27
2019-03-21T02:08:23.626Z,31.50
2019-03-21T02:10:53.665Z,33.00
2019-03-21T02:13:23.540Z,30.50
2019-03-21T02:15:53.544Z,34.70
2019-03-21T02:18:23.464Z,31.67
2019-03-21T02:20:53.511Z,29.07
2019-03-21T02:23:23.561Z,30.50
2019-03-21T02:25:56.681Z,29.77
2019-03-21T02:28:26.719Z,28.90
2019-03-21T02:30:56.820Z,31.00
2019-03-21T02:33:29.516Z,31.73
2019-03-21T02:35:59.664Z,33.00
2019-03-21T02:38:29.692Z,34.30
2019-03-21T02:41:01.168Z,31.87
2019-03-21T02:43:32.296Z,30.37
2019-03-21T02:46:02.485Z,31.97
2019-03-21T02:48:32.349Z,31.90
2019-03-21T02:51:02.267Z,33.33
2019-03-21T02:53:32.324Z,37.70
2019-03-21T02:56:02.323Z,36.27
2019-03-21T02:58:32.388Z,33.63
2019-03-21T03:01:02.369Z,35.87
2019-03-21T03:03:32.505Z,34.90
2019-03-21T03:06:02.422Z,31.40
2019-03-21T03:08:32.497Z,34.30
2019-03-21T03:11:02.974Z,32.90
2019-03-21T03:13:32.963Z,34.60
2019-03-21T03:16:02.986Z,33.17
2019-03-21T03:18:33.039Z,34.80
2019-03-21T03:21:03.084Z,37.13
2019-03-21T03:23:33.284Z,32.60
2019-03-21T03:26:03.303Z,37.07
2019-03-21T03:28:33.519Z,33.73
2019-03-21T03:31:03.624Z,33.87
2019-03-21T03:33:33.607Z,36.57
2019-03-21T03:36:03.699Z,35.70
2019-03-21T03:38:33.903Z,37.23
2019-03-21T03:41:03.973Z,35.10
2019-03-21T03:43:33.897Z,33.47
2019-03-21T03:46:05.037Z,37.27
2019-03-21T03:48:35.130Z,32.60
2019-03-21T03:51:05.068Z,33.03
2019-03-21T03:53:35.094Z,36.40
2019-03-21T03:56:05.272Z,35.77
2019-03-21T03:58:36.162Z,34.70
2019-03-21T04:01:06.460Z,33.40
2019-03-21T04:03:36.757Z,34.63
2019-03-21T04:06:07.260Z,37.20
2019-03-21T04:08:37.451Z,35.83
2019-03-21T04:11:07.320Z,36.77
2019-03-21T04:13:37.424Z,34.90
2019-03-21T04:16:07.423Z,35.07
2019-03-21T04:18:40.504Z,33.83
2019-03-21T04:21:10.627Z,37.10
2019-03-21T04:23:40.710Z,38.87
2019-03-21T04:26:14.201Z,36.93
2019-03-21T04:28:44.341Z,35.73
2019-03-21T04:31:14.226Z,35.63
2019-03-21T04:33:44.838Z,36.00
2019-03-21T04:36:14.838Z,37.30
2019-03-21T04:38:45.000Z,36.33
2019-03-21T04:41:15.023Z,35.50
2019-03-21T04:43:44.988Z,34.97
2019-03-21T04:46:15.003Z,35.30
2019-03-21T04:48:45.144Z,32.10
2019-03-21T04:51:15.108Z,34.70
2019-03-21T04:53:45.163Z,33.87
2019-03-21T04:56:15.283Z,35.40
2019-03-21T04:58:45.606Z,33.23
2019-03-21T05:01:15.676Z,36.70
2019-03-21T05:03:45.694Z,34.70
2019-03-21T05:06:15.615Z,32.20
2019-03-21T05:08:45.555Z,33.70
2019-03-21T05:11:15.621Z,32.13
2019-03-21T05:13:45.758Z,29.90
2019-03-21T05:16:15.805Z,31.00
2019-03-21T05:18:46.714Z,28.80
2019-03-21T05:21:17.967Z,30.17
2019-03-21T05:23:47.953Z,28.23
2019-03-21T05:26:18.109Z,28.27
2019-03-21T05:28:48.277Z,29.33
2019-03-21T05:31:24.849Z,27.73
2019-03-21T05:33:54.883Z,28.53
2019-03-21T05:36:24.942Z,28.40
2019-03-21T05:38:55.013Z,25.87
2019-03-21T05:41:25.072Z,26.50
2019-03-21T05:43:58.837Z,25.23
2019-03-21T05:46:29.061Z,25.73
2019-03-21T05:48:59.023Z,25.30
2019-03-21T05:51:29.015Z,26.47
2019-03-21T05:53:59.026Z,26.57
2019-03-21T05:56:29.113Z,24.87
2019-03-21T05:58:59.079Z,23.83
2019-03-21T06:01:29.110Z,25.03
2019-03-21T06:03:59.102Z,25.83
2019-03-21T06:06:57.338Z,26.80
2019-03-21T06:09:27.451Z,28.60
2019-03-21T06:11:59.270Z,26.07
2019-03-21T06:14:29.999Z,29.70
2019-03-21T06:17:00.067Z,27.60
2019-03-21T06:19:45.988Z,27.60
2019-03-21T06:22:47.774Z,28.20
2019-03-21T06:25:45.890Z,29.00
2019-03-21T06:28:15.907Z,31.33
2019-03-21T06:30:45.962Z,29.87
2019-03-21T06:33:15.924Z,28.43
2019-03-21T06:35:45.856Z,28.37
2019-03-21T06:38:15.882Z,29.37
2019-03-21T06:40:45.911Z,26.27
2019-03-21T06:43:15.958Z,30.77
2019-03-21T06:45:48.115Z,30.07
2019-03-21T06:48:17.743Z,28.63
2019-03-21T06:50:47.833Z,29.60
2019-03-21T06:53:17.945Z,28.97
2019-03-21T06:55:48.002Z,28.43
2019-03-21T06:58:17.978Z,28.03
2019-03-21T07:00:48.065Z,25.63
2019-03-21T07:03:18.264Z,26.53
2019-03-21T07:05:48.305Z,24.57
2019-03-21T07:08:18.429Z,25.23
2019-03-21T07:10:48.490Z,29.43
2019-03-21T07:13:18.507Z,27.63
2019-03-21T07:15:48.548Z,28.80
2019-03-21T07:18:18.539Z,28.47
2019-03-21T07:20:48.637Z,29.30
2019-03-21T07:23:18.689Z,31.00
2019-03-21T07:25:48.684Z,29.37
2019-03-21T07:28:18.982Z,25.97
2019-03-21T07:30:49.166Z,29.97
2019-03-21T07:33:19.089Z,28.17
2019-03-21T07:35:49.090Z,26.97
2019-03-21T07:38:19.256Z,30.40
2019-03-21T07:40:49.235Z,25.77
2019-03-21T07:43:19.318Z,25.70
2019-03-21T07:45:49.895Z,28.73
2019-03-21T07:48:19.846Z,26.60
2019-03-21T07:50:52.752Z,31.10
2019-03-21T07:53:22.669Z,27.00
2019-03-21T07:55:52.666Z,29.10
2019-03-21T07:58:22.791Z,26.70
2019-03-21T08:00:52.935Z,28.87
2019-03-21T08:03:22.885Z,29.90
2019-03-21T08:05:52.964Z,29.80
2019-03-21T08:08:23.038Z,28.17
2019-03-21T08:10:53.079Z,28.90
2019-03-21T08:13:23.169Z,28.80
2019-03-21T08:15:53.188Z,27.00
2019-03-21T08:18:25.273Z,28.70
2019-03-21T08:20:58.615Z,30.47
2019-03-21T08:23:27.181Z,30.50
2019-03-21T08:25:57.265Z,27.20
2019-03-21T08:28:27.369Z,25.53
2019-03-21T08:31:15.275Z,30.47
2019-03-21T08:33:45.926Z,26.17
2019-03-21T08:36:16.109Z,27.17
2019-03-21T08:38:46.476Z,25.37
2019-03-21T08:41:16.809Z,25.57
2019-03-21T08:43:46.747Z,27.00
2019-03-21T08:46:16.706Z,26.50
2019-03-21T08:48:46.695Z,27.63
2019-03-21T08:51:16.841Z,25.47
2019-03-21T08:53:46.970Z,24.10
2019-03-21T08:56:17.129Z,23.27
2019-03-21T08:58:47.290Z,24.90
2019-03-21T09:01:17.383Z,22.73
2019-03-21T09:03:47.893Z,23.30
2019-03-21T09:06:17.901Z,26.70
2019-03-21T09:08:48.058Z,21.17
2019-03-21T09:11:18.172Z,25.23
2019-03-21T09:13:48.124Z,27.50
2019-03-21T09:16:18.245Z,22.60
2019-03-21T09:18:48.345Z,23.97
2019-03-21T09:21:19.891Z,22.60
2019-03-21T09:23:50.328Z,23.07
2019-03-21T09:26:20.929Z,23.03
2019-03-21T09:28:51.527Z,24.17
2019-03-21T09:31:21.900Z,23.83
2019-03-21T09:33:51.849Z,25.80
2019-03-21T09:36:21.822Z,21.57
2019-03-21T09:38:51.749Z,22.13
2019-03-21T09:41:21.761Z,21.70
2019-03-21T09:43:51.853Z,20.63
2019-03-21T09:46:22.891Z,22.07
2019-03-21T09:48:52.961Z,20.80
2019-03-21T09:51:30.828Z,25.30
2019-03-21T09:53:54.812Z,21.97
2019-03-21T09:56:24.927Z,20.43
2019-03-21T09:58:55.011Z,22.70
2019-03-21T10:01:25.101Z,21.00
2019-03-21T10:03:55.070Z,23.50
2019-03-21T10:06:25.155Z,19.03
2019-03-21T10:08:55.249Z,21.10
2019-03-21T10:11:25.378Z,19.60
2019-03-21T10:13:55.298Z,21.63
2019-03-21T10:16:25.337Z,20.43
2019-03-21T10:18:55.200Z,21.87
2019-03-21T10:21:25.156Z,20.87
2019-03-21T10:23:55.094Z,20.63
2019-03-21T10:26:25.189Z,24.47
2019-03-21T10:28:55.193Z,22.30
2019-03-21T10:31:28.537Z,20.90
2019-03-21T10:33:58.525Z,18.80
2019-03-21T10:36:28.701Z,18.80
2019-03-21T10:38:58.801Z,19.73
2019-03-21T10:41:28.738Z,18.93
2019-03-21T10:43:58.721Z,17.13
2019-03-21T10:46:29.129Z,18.60
2019-03-21T10:48:59.306Z,19.47
2019-03-21T10:51:29.420Z,19.17
2019-03-21T10:54:02.354Z,24.40
2019-03-21T10:56:32.381Z,17.67
2019-03-21T10:59:02.535Z,22.10
2019-03-21T11:01:32.568Z,16.33
2019-03-21T11:04:02.489Z,14.87
2019-03-21T11:06:32.492Z,14.17
2019-03-21T11:09:02.566Z,17.10
2019-03-21T11:11:32.556Z,15.23
2019-03-21T11:14:02.597Z,15.27
2019-03-21T11:16:32.714Z,16.13
2019-03-21T11:19:02.863Z,14.60
2019-03-21T11:21:33.163Z,13.10
2019-03-21T11:24:03.216Z,11.43
2019-03-21T11:26:34.317Z,14.83
2019-03-21T11:29:04.523Z,13.90
2019-03-21T11:31:34.466Z,14.60
2019-03-21T11:34:04.552Z,14.27
2019-03-21T11:36:38.520Z,15.23
2019-03-21T11:39:08.600Z,16.53
2019-03-21T11:41:38.677Z,15.70
2019-03-21T11:44:08.798Z,17.77
2019-03-21T11:46:38.877Z,16.30
2019-03-21T11:49:09.044Z,16.67
2019-03-21T11:51:39.558Z,15.37
2019-03-21T11:54:09.592Z,16.00
2019-03-21T11:56:39.692Z,14.40
2019-03-21T11:59:09.826Z,13.33
2019-03-21T12:01:39.768Z,15.07
2019-03-21T12:04:09.733Z,16.37
2019-03-21T12:06:39.717Z,16.10
2019-03-21T12:09:09.986Z,15.60
2019-03-21T12:11:39.997Z,19.63
2019-03-21T12:14:10.088Z,17.43
2019-03-21T12:16:40.102Z,14.37
2019-03-21T12:19:10.193Z,15.90
2019-03-21T12:21:40.159Z,15.30
2019-03-21T12:24:10.203Z,17.30
2019-03-21T12:26:40.188Z,16.67
2019-03-21T12:29:11.089Z,15.80
2019-03-21T12:31:41.142Z,16.07
2019-03-21T12:34:11.172Z,18.47
2019-03-21T12:36:41.346Z,15.43
2019-03-21T12:39:11.490Z,15.27
2019-03-21T12:41:41.568Z,15.40
2019-03-21T12:44:11.569Z,15.30
2019-03-21T12:46:41.541Z,15.43
2019-03-21T12:49:11.594Z,17.47
2019-03-21T12:51:41.532Z,17.13
2019-03-21T12:54:11.724Z,17.40
2019-03-21T12:56:41.728Z,15.33
2019-03-21T12:59:11.999Z,18.03
2019-03-21T13:01:42.044Z,16.80
2019-03-21T13:04:12.092Z,13.97
2019-03-21T13:06:42.241Z,17.87
2019-03-21T13:09:12.370Z,17.33
2019-03-21T13:11:42.307Z,16.03
2019-03-21T13:14:12.386Z,17.20
2019-03-21T13:16:42.352Z,17.90
2019-03-21T13:19:12.342Z,17.70
2019-03-21T13:21:42.262Z,19.63
2019-03-21T13:24:12.297Z,18.10
2019-03-21T13:26:42.283Z,16.97
2019-03-21T13:29:12.301Z,19.03
2019-03-21T13:31:42.254Z,21.20
2019-03-21T13:34:12.222Z,17.30
2019-03-21T13:36:42.188Z,18.93
2019-03-21T13:39:12.274Z,21.07
2019-03-21T13:41:42.826Z,18.93
2019-03-21T13:44:12.985Z,24.03
2019-03-21T13:46:42.931Z,18.60
2019-03-21T13:49:14.077Z,18.40
2019-03-21T13:51:44.079Z,17.90
2019-03-21T13:54:14.256Z,18.37
2019-03-21T13:56:44.251Z,19.70
2019-03-21T13:59:14.477Z,21.27
2019-03-21T14:01:44.735Z,19.80
2019-03-21T14:04:15.095Z,19.67
2019-03-21T14:06:45.106Z,21.47
2019-03-21T14:09:15.473Z,19.77
2019-03-21T14:11:45.433Z,21.73
2019-03-21T14:14:15.540Z,21.70
2019-03-21T14:16:45.637Z,20.90
2019-03-21T14:19:15.851Z,26.00
2019-03-21T14:21:45.801Z,20.87
2019-03-21T14:24:15.997Z,22.10
2019-03-21T14:26:45.937Z,21.37
2019-03-21T14:29:16.452Z,22.23
2019-03-21T14:31:46.521Z,20.67
2019-03-21T14:34:16.623Z,20.40
2019-03-21T14:36:46.632Z,21.57
2019-03-21T14:39:16.736Z,20.93
2019-03-21T14:41:46.735Z,18.67
2019-03-21T14:44:16.754Z,22.37
2019-03-21T14:46:46.768Z,18.37
2019-03-21T14:49:16.808Z,19.20
2019-03-21T14:51:46.778Z,19.40
2019-03-21T14:54:16.739Z,15.87
2019-03-21T14:56:46.861Z,21.83
2019-03-21T14:59:16.919Z,20.47
2019-03-21T15:01:48.211Z,17.67
2019-03-21T15:04:18.274Z,20.23
2019-03-21T15:06:48.336Z,20.70
2019-03-21T15:09:18.391Z,20.90
2019-03-21T15:11:48.666Z,16.53
2019-03-21T15:14:18.762Z,20.10
2019-03-21T15:16:48.920Z,19.13
2019-03-21T15:19:18.898Z,17.83
2019-03-21T15:21:49.081Z,18.97
2019-03-21T15:24:19.182Z,20.30
2019-03-21T15:26:51.181Z,28.70
2019-03-21T15:29:21.045Z,23.70
2019-03-21T15:31:51.088Z,18.90
2019-03-21T15:34:21.112Z,18.90
2019-03-21T15:36:51.217Z,17.90
2019-03-21T15:39:21.439Z,18.17
2019-03-21T15:41:51.586Z,19.13
2019-03-21T15:44:21.815Z,20.07
2019-03-21T15:46:52.038Z,19.13
2019-03-21T15:49:22.107Z,19.60
2019-03-21T15:51:52.187Z,21.47
2019-03-21T15:54:22.212Z,19.40
2019-03-21T15:56:52.304Z,22.60
2019-03-21T15:59:22.416Z,18.83
2019-03-21T16:01:52.544Z,20.53
2019-03-21T16:04:22.543Z,17.87
2019-03-21T16:06:52.723Z,18.33
2019-03-21T16:09:22.673Z,19.30
2019-03-21T16:11:52.751Z,16.30
2019-03-21T16:14:22.805Z,19.90
2019-03-21T16:16:53.079Z,19.67
2019-03-21T16:19:23.310Z,19.00
2019-03-21T16:21:53.591Z,19.80
2019-03-21T16:24:23.755Z,21.77
2019-03-21T16:26:53.860Z,19.87
2019-03-21T16:29:24.002Z,17.90
2019-03-21T16:31:57.890Z,19.27
2019-03-21T16:34:28.101Z,18.13
2019-03-21T16:36:58.327Z,16.53
2019-03-21T16:39:28.466Z,18.20
2019-03-21T16:41:58.926Z,16.73
2019-03-21T16:44:29.142Z,17.50
2019-03-21T16:46:59.359Z,15.70
2019-03-21T16:49:29.497Z,16.77
2019-03-21T16:51:59.749Z,19.67
2019-03-21T16:54:30.397Z,20.30
2019-03-21T16:57:00.686Z,18.67
2019-03-21T16:59:30.894Z,19.70
2019-03-21T17:02:01.335Z,18.20
2019-03-21T17:04:31.557Z,19.30
2019-03-21T17:07:01.871Z,21.60
2019-03-21T17:09:32.464Z,17.00
2019-03-21T17:12:02.981Z,19.00
2019-03-21T17:14:33.204Z,19.73
2019-03-21T17:17:03.579Z,18.90
2019-03-21T17:19:34.069Z,19.70
2019-03-21T17:22:04.507Z,18.83
2019-03-21T17:24:34.931Z,18.00
2019-03-21T17:27:05.414Z,18.20
2019-03-21T17:29:35.681Z,15.27
2019-03-21T17:32:06.329Z,22.27
2019-03-21T17:34:36.545Z,22.27
2019-03-21T17:37:06.950Z,24.07
2019-03-21T17:39:38.403Z,24.87
2019-03-21T17:42:09.014Z,23.53
2019-03-21T17:44:39.175Z,22.57
2019-03-21T17:47:09.518Z,22.87
2019-03-21T17:49:39.875Z,23.00
2019-03-21T17:52:10.325Z,26.00
2019-03-21T17:54:41.916Z,24.83
2019-03-21T17:57:12.587Z,25.43
2019-03-21T17:59:42.904Z,24.63
2019-03-21T18:02:13.481Z,22.20
2019-03-21T18:04:43.916Z,25.97
2019-03-21T18:07:14.299Z,22.53
2019-03-21T18:09:45.001Z,26.77
2019-03-21T18:12:15.609Z,27.03
2019-03-21T18:14:46.039Z,25.73
2019-03-21T18:17:16.513Z,23.97
2019-03-21T18:19:46.954Z,27.07
2019-03-21T18:22:19.029Z,26.27
2019-03-21T18:24:54.091Z,29.40
2019-03-21T18:27:21.965Z,30.00
2019-03-21T18:29:52.300Z,28.33
2019-03-21T18:32:22.827Z,27.60
2019-03-21T18:34:53.316Z,26.20
2019-03-21T18:37:23.723Z,33.17
2019-03-21T18:39:54.084Z,33.13
2019-03-21T18:42:24.615Z,33.20
2019-03-21T18:44:55.112Z,34.93
2019-03-21T18:47:25.905Z,34.00
2019-03-21T18:49:56.185Z,35.23
2019-03-21T18:52:26.715Z,34.43
2019-03-21T18:55:06.306Z,36.63
2019-03-21T18:57:29.314Z,39.67
2019-03-21T18:59:59.789Z,33.50
2019-03-21T19:02:30.533Z,28.83
2019-03-21T19:05:00.921Z,25.67
2019-03-21T19:07:31.372Z,30.70
2019-03-21T19:10:01.778Z,33.07
2019-03-21T19:12:32.140Z,32.10
2019-03-21T19:15:02.583Z,29.53
2019-03-21T19:17:33.188Z,32.37
2019-03-21T19:20:06.511Z,35.70
2019-03-21T19:22:37.290Z,36.77
2019-03-21T19:25:17.862Z,32.07
2019-03-21T19:27:40.649Z,35.90
2019-03-21T19:30:11.467Z,33.93
2019-03-21T19:32:41.965Z,31.10
2019-03-21T19:35:12.649Z,35.03
2019-03-21T19:37:43.346Z,37.13
2019-03-21T19:40:14.064Z,38.40
2019-03-21T19:42:44.576Z,37.90
2019-03-21T19:45:15.303Z,36.57
2019-03-21T19:47:45.797Z,36.87
2019-03-21T19:50:16.815Z,39.10
2019-03-21T19:52:47.294Z,39.67
2019-03-21T19:55:25.881Z,41.80
2019-03-21T19:57:50.067Z,44.23
2019-03-21T20:00:21.309Z,45.03
2019-03-21T20:02:51.897Z,43.80
2019-03-21T20:05:22.519Z,43.50
2019-03-21T20:07:52.876Z,42.50
2019-03-21T20:10:23.529Z,41.37
2019-03-21T20:12:54.125Z,41.57
2019-03-21T20:15:25.769Z,43.00
2019-03-21T20:17:56.269Z,40.17
2019-03-21T20:20:26.649Z,42.33
2019-03-21T20:22:57.043Z,38.90
2019-03-21T20:25:27.610Z,37.30
2019-03-21T20:27:58.046Z,39.33
2019-03-21T20:30:28.451Z,40.97
2019-03-21T20:32:59.105Z,41.43
2019-03-21T20:35:29.669Z,42.23
2019-03-21T20:38:00.201Z,45.60
2019-03-21T20:40:30.771Z,48.20
2019-03-21T20:43:01.292Z,44.90
2019-03-21T20:45:31.786Z,41.83
2019-03-21T20:48:02.292Z,45.70
2019-03-21T20:50:32.735Z,43.20
2019-03-21T20:53:02.992Z,42.57
2019-03-21T20:55:33.365Z,44.60
2019-03-21T20:58:03.666Z,46.17
2019-03-21T21:00:34.209Z,51.30
2019-03-21T21:03:04.687Z,49.13
2019-03-21T21:05:35.122Z,54.60
2019-03-21T21:08:05.515Z,52.70
2019-03-21T21:10:36.175Z,52.87
2019-03-21T21:13:06.408Z,64.40
2019-03-21T21:15:37.000Z,66.07
2019-03-21T21:18:07.267Z,65.50
2019-03-21T21:20:37.668Z,64.00
2019-03-21T21:23:08.047Z,62.17
2019-03-21T21:25:38.448Z,70.37
2019-03-21T21:28:08.741Z,72.40
2019-03-21T21:30:39.020Z,71.07
2019-03-21T21:33:09.248Z,75.90
2019-03-21T21:35:39.546Z,74.93
2019-03-21T21:38:10.140Z,80.97
2019-03-21T21:40:40.276Z,74.23
2019-03-21T21:43:10.265Z,71.90
2019-03-21T21:45:41.553Z,75.40
2019-03-21T21:48:11.647Z,72.13
2019-03-21T21:50:41.697Z,72.70
2019-03-21T21:53:11.784Z,80.77
2019-03-21T21:55:41.908Z,76.37
2019-03-21T21:58:12.001Z,74.90
2019-03-21T22:00:42.155Z,77.30
2019-03-21T22:03:12.183Z,76.30
2019-03-21T22:05:42.216Z,78.77
2019-03-21T22:08:12.190Z,84.70
2019-03-21T22:10:42.410Z,84.40
2019-03-21T22:13:12.483Z,80.67
2019-03-21T22:15:42.463Z,77.47
2019-03-21T22:18:12.529Z,80.80
2019-03-21T22:20:42.609Z,81.27
2019-03-21T22:23:12.681Z,81.97
2019-03-21T22:25:42.696Z,78.30
2019-03-21T22:28:12.740Z,78.83
2019-03-21T22:30:42.887Z,79.33
2019-03-21T22:33:12.969Z,75.57
2019-03-21T22:35:42.884Z,74.33
2019-03-21T22:38:12.785Z,80.57
2019-03-21T22:40:42.928Z,78.97
2019-03-21T22:43:12.921Z,81.63
2019-03-21T22:45:43.048Z,76.00
2019-03-21T22:48:12.976Z,76.20
2019-03-21T22:50:43.009Z,81.53
2019-03-21T22:53:12.971Z,76.47
2019-03-21T22:55:43.152Z,77.27
2019-03-21T22:58:13.256Z,80.07
2019-03-21T23:00:45.588Z,75.93
2019-03-21T23:03:15.547Z,75.57
2019-03-21T23:05:45.644Z,74.37
2019-03-21T23:08:15.716Z,77.27
2019-03-21T23:10:45.803Z,79.20
2019-03-21T23:13:15.928Z,80.07
2019-03-21T23:15:46.039Z,78.40
2019-03-21T23:18:16.008Z,77.50
2019-03-21T23:20:46.110Z,76.27
2019-03-21T23:23:16.147Z,81.20
2019-03-21T23:25:46.141Z,79.27
2019-03-21T23:28:16.262Z,75.40
2019-03-21T23:30:46.320Z,81.23
2019-03-21T23:33:16.340Z,80.83
2019-03-21T23:35:46.541Z,76.43
2019-03-21T23:38:16.549Z,78.07
2019-03-21T23:40:46.620Z,75.10
2019-03-21T23:43:16.721Z,75.77
2019-03-21T23:45:46.831Z,70.97
2019-03-21T23:48:16.803Z,73.40
2019-03-21T23:50:46.883Z,73.30
2019-03-21T23:53:16.942Z,80.87
2019-03-21T23:55:47.026Z,70.03
2019-03-21T23:58:17.002Z,71.13
